Time;durP1;ratioP1;P1;durP2;ratioP2;P2;SDS_P1;SDS_P2;PMS_P1;PMS_P2;Temp;Humidity;BMP_temperature;BMP_pressure;BME280_temperature;BME280_humidity;BME280_pressure;Samples;Min_cycle;Max_cycle;Signal;HPM_P1;HPM_P2
2023/07/14 00:00:15;;;;;;;1.10;1.05;;;;;;;29.72;72.74;99144.50;5107992;28;20234;-68
2023/07/14 00:02:42;;;;;;;1.02;1.02;;;;;;;29.68;72.24;99144.03;5112933;28;20729;-68
2023/07/14 00:05:14;;;;;;;1.00;1.00;;;;;;;29.63;72.39;99141.91;5110867;28;20203;-68
2023/07/14 00:07:41;;;;;;;1.17;1.07;;;;;;;29.64;72.74;99140.09;5107316;28;20198;-68
2023/07/14 00:10:15;;;;;;;0.95;0.95;;;;;;;29.61;73.57;99135.97;5110951;28;20664;-68
2023/07/14 00:12:42;;;;;;;1.10;1.00;;;;;;;29.50;73.90;99135.56;5111334;28;20222;-68
2023/07/14 00:15:17;;;;;;;1.37;1.27;;;;;;;29.48;73.69;99138.34;5111320;28;20285;-68
2023/07/14 00:17:44;;;;;;;1.35;1.20;;;;;;;29.42;74.46;99138.22;5112318;28;20202;-68
2023/07/14 00:20:22;;;;;;;0.83;0.80;;;;;;;29.37;74.63;99130.81;5112257;27;20229;-68
2023/07/14 00:22:49;;;;;;;1.33;1.33;;;;;;;29.38;75.44;99134.28;5112476;28;20191;-68
2023/07/14 00:25:16;;;;;;;1.20;1.20;;;;;;;29.32;75.19;99127.03;5111315;28;20256;-68
2023/07/14 00:27:43;;;;;;;1.30;1.20;;;;;;;29.26;74.33;99128.56;5111195;28;20294;-68
2023/07/14 00:30:16;;;;;;;1.30;1.30;;;;;;;29.24;74.00;99127.06;5111263;28;20201;-68
2023/07/14 00:32:44;;;;;;;2.00;1.27;;;;;;;29.16;73.63;99128.72;5117350;27;20250;-68
2023/07/14 00:35:27;;;;;;;0.97;0.97;;;;;;;29.09;73.29;99116.38;5111923;27;20289;-68
2023/07/14 00:37:56;;;;;;;1.53;1.43;;;;;;;29.07;73.04;99113.09;5107933;28;20305;-68
2023/07/14 00:40:39;;;;;;;1.80;1.07;;;;;;;29.06;73.37;99107.00;5107957;28;20623;-68
2023/07/14 00:43:13;;;;;;;1.00;1.00;;;;;;;29.00;73.70;99101.56;5109857;28;20190;-68
2023/07/14 00:45:39;;;;;;;1.63;0.83;;;;;;;28.92;73.84;99099.75;5110419;28;20198;-68
2023/07/14 00:48:15;;;;;;;1.43;1.33;;;;;;;28.87;74.34;99102.09;5108875;28;20210;-67
2023/07/14 00:50:45;;;;;;;1.13;1.13;;;;;;;28.66;74.48;99067.53;5108121;28;20201;-68
2023/07/14 00:53:18;;;;;;;1.27;1.20;;;;;;;28.84;74.77;99098.97;5109976;28;20640;-68
2023/07/14 00:55:49;;;;;;;1.37;1.30;;;;;;;28.81;74.54;99096.69;5111661;28;20222;-68
2023/07/14 00:58:21;;;;;;;1.00;1.00;;;;;;;28.79;74.44;99098.69;5108928;28;20221;-68
2023/07/14 01:01:02;;;;;;;3.93;1.63;;;;;;;28.73;75.05;99107.25;5108009;28;20195;-68
2023/07/14 01:03:32;;;;;;;3.57;1.23;;;;;;;28.66;74.97;99099.19;5110789;28;20255;-68
2023/07/14 01:06:02;;;;;;;0.80;0.80;;;;;;;28.61;75.22;99110.22;5110986;28;20198;-68
2023/07/14 01:08:31;;;;;;;0.93;0.93;;;;;;;28.61;75.32;99107.56;5111604;28;20221;-68
2023/07/14 01:10:59;;;;;;;1.10;1.00;;;;;;;28.57;74.98;99110.72;5111811;28;20202;-68
2023/07/14 01:13:27;;;;;;;1.30;1.20;;;;;;;28.56;73.94;99107.25;5110193;28;20214;-68
2023/07/14 01:15:54;;;;;;;2.40;1.07;;;;;;;28.49;72.96;99113.38;5112381;27;20210;-68
2023/07/14 01:18:21;;;;;;;1.03;0.93;;;;;;;28.46;72.64;99108.44;5110797;28;20198;-67
2023/07/14 01:20:50;;;;;;;1.47;1.37;;;;;;;28.45;72.52;99102.34;5110428;28;20241;-68
2023/07/14 01:23:39;;;;;;;0.80;0.80;;;;;;;28.44;72.99;99100.66;5111871;27;20653;-68
2023/07/14 01:26:15;;;;;;;2.67;1.43;;;;;;;28.42;73.50;99101.84;5109639;28;20202;-68
2023/07/14 01:28:43;;;;;;;3.97;1.30;;;;;;;28.39;73.06;99107.44;5110051;28;20206;-69
2023/07/14 01:31:13;;;;;;;0.77;0.77;;;;;;;28.35;72.91;99106.13;5110674;28;20198;-68
2023/07/14 01:33:39;;;;;;;6.87;1.27;;;;;;;28.30;72.57;99103.19;5107093;28;20221;-68
2023/07/14 01:36:06;;;;;;;1.33;1.27;;;;;;;28.21;72.05;99099.69;5110527;28;20401;-68
2023/07/14 01:38:34;;;;;;;0.83;0.83;;;;;;;28.24;71.82;99117.03;5108127;28;20234;-68
2023/07/14 01:41:04;;;;;;;0.90;0.90;;;;;;;28.11;71.62;99110.41;5110458;28;20234;-68
2023/07/14 01:43:31;;;;;;;11.33;1.20;;;;;;;28.11;71.03;99114.88;5110099;28;20210;-68
2023/07/14 01:46:01;;;;;;;1.57;0.73;;;;;;;28.09;71.27;99119.47;5110843;28;20616;-68
2023/07/14 01:48:32;;;;;;;1.20;1.00;;;;;;;28.01;70.68;99120.25;5109467;28;20206;-68
2023/07/14 01:51:03;;;;;;;1.17;1.17;;;;;;;27.97;71.07;99118.13;5107480;28;20199;-68
2023/07/14 01:53:34;;;;;;;0.87;0.87;;;;;;;27.92;71.85;99110.69;5110190;28;20762;-68
2023/07/14 01:56:07;;;;;;;1.00;1.00;;;;;;;27.87;71.70;99117.44;5110615;28;20724;-68
2023/07/14 01:58:44;;;;;;;1.03;1.03;;;;;;;27.76;72.26;99105.41;5110323;27;20202;-69
2023/07/14 02:01:13;;;;;;;1.90;1.20;;;;;;;27.82;72.05;99127.66;5107430;28;20206;-68
2023/07/14 02:03:46;;;;;;;3.97;1.03;;;;;;;27.77;72.73;99133.41;5109068;28;20195;-68
2023/07/14 02:06:13;;;;;;;0.90;0.90;;;;;;;27.72;71.87;99125.19;5109939;28;20199;-68
2023/07/14 02:08:40;;;;;;;1.13;1.00;;;;;;;27.68;72.52;99126.47;5108906;28;20669;-68
2023/07/14 02:11:14;;;;;;;1.17;1.00;;;;;;;27.59;71.67;99122.19;5109095;28;20558;-68
2023/07/14 02:13:40;;;;;;;0.93;0.93;;;;;;;27.50;70.88;99120.50;5110479;28;20215;-68
2023/07/14 02:16:14;;;;;;;0.90;0.90;;;;;;;27.42;71.54;99117.81;5109677;28;20703;-68
2023/07/14 02:18:43;;;;;;;1.07;0.97;;;;;;;27.36;71.13;99118.47;5112084;28;20222;-68
2023/07/14 02:21:12;;;;;;;0.90;0.83;;;;;;;27.31;71.32;99115.47;5109104;28;20202;-69
2023/07/14 02:23:41;;;;;;;1.00;1.00;;;;;;;27.22;71.61;99105.88;5110696;28;20678;-68
2023/07/14 02:26:15;;;;;;;0.67;0.67;;;;;;;27.32;72.11;99117.13;5109039;28;20628;-68
2023/07/14 02:28:42;;;;;;;0.80;0.80;;;;;;;27.34;71.83;99115.13;5110563;28;20233;-68
2023/07/14 02:31:15;;;;;;;0.73;0.73;;;;;;;27.31;72.11;99115.47;5107646;28;20195;-68
2023/07/14 02:33:46;;;;;;;1.10;1.10;;;;;;;27.31;72.74;99126.81;5110694;28;20271;-68
2023/07/14 02:36:21;;;;;;;1.27;1.20;;;;;;;27.30;73.00;99132.25;5109412;28;20206;-68
2023/07/14 02:38:48;;;;;;;0.90;0.90;;;;;;;27.26;73.01;99139.63;5109052;28;20224;-69
2023/07/14 02:41:21;;;;;;;1.23;0.73;;;;;;;27.22;72.97;99133.03;5101951;28;20210;-68
2023/07/14 02:43:52;;;;;;;1.23;0.83;;;;;;;27.08;73.47;99131.81;5108231;28;20733;-68
2023/07/14 02:46:24;;;;;;;0.80;0.80;;;;;;;27.08;73.39;99142.34;5106402;28;20292;-68
2023/07/14 02:48:53;;;;;;;1.30;1.20;;;;;;;27.06;73.13;99154.84;5108610;28;20207;-68
2023/07/14 02:51:20;;;;;;;1.17;1.07;;;;;;;27.05;74.10;99163.72;5111389;28;20210;-69
2023/07/14 02:53:47;;;;;;;1.40;1.33;;;;;;;27.04;74.09;99156.78;5110274;28;20713;-69
2023/07/14 02:56:14;;;;;;;1.13;1.13;;;;;;;27.04;73.94;99166.50;5109406;28;20693;-68
2023/07/14 02:58:41;;;;;;;1.83;1.17;;;;;;;26.89;75.02;99147.84;5106014;28;20609;-69
2023/07/14 03:01:08;;;;;;;0.97;0.97;;;;;;;26.88;74.90;99155.91;5106961;28;20279;-68
2023/07/14 03:03:36;;;;;;;0.90;0.90;;;;;;;26.74;75.19;99138.84;5109756;28;20209;-68
2023/07/14 03:06:04;;;;;;;1.00;1.00;;;;;;;26.78;75.46;99150.72;5108960;28;20202;-68
2023/07/14 03:08:31;;;;;;;0.77;0.77;;;;;;;26.73;76.36;99152.13;5107059;28;20198;-68
2023/07/14 03:11:00;;;;;;;1.70;0.80;;;;;;;26.71;76.19;99157.56;5109751;28;20210;-68
2023/07/14 03:13:27;;;;;;;1.13;1.13;;;;;;;26.72;75.99;99161.03;5108930;28;20222;-69
2023/07/14 03:15:54;;;;;;;1.00;0.90;;;;;;;26.65;76.86;99166.06;5113508;28;20674;-69
2023/07/14 03:18:21;;;;;;;0.73;0.73;;;;;;;26.59;77.33;99179.84;5112705;28;20199;-68
2023/07/14 03:20:48;;;;;;;0.70;0.70;;;;;;;26.61;78.44;99180.50;5113822;28;20206;-68
2023/07/14 03:23:16;;;;;;;1.03;0.93;;;;;;;26.59;79.35;99187.72;5113196;28;20688;-68
2023/07/14 03:25:43;;;;;;;1.37;1.27;;;;;;;26.60;79.74;99197.25;5112978;28;20198;-69
2023/07/14 03:28:09;;;;;;;1.00;1.00;;;;;;;26.61;80.13;99206.78;5111106;28;20199;-68
2023/07/14 03:30:39;;;;;;;1.83;1.10;;;;;;;26.60;80.44;99210.38;5111467;28;20267;-68
2023/07/14 03:33:06;;;;;;;2.87;1.20;;;;;;;26.58;81.16;99225.50;5110478;28;20218;-68
2023/07/14 03:35:33;;;;;;;1.37;1.27;;;;;;;26.53;82.66;99225.94;5112867;28;20665;-69
2023/07/14 03:37:59;;;;;;;1.53;1.17;;;;;;;26.54;83.72;99226.78;5112221;28;20658;-69
2023/07/14 03:40:28;;;;;;;0.83;0.83;;;;;;;26.49;84.47;99240.41;5110314;28;20205;-68
2023/07/14 03:42:54;;;;;;;0.70;0.70;;;;;;;26.48;85.25;99248.41;5112825;28;20206;-68
2023/07/14 03:45:21;;;;;;;1.17;1.07;;;;;;;26.50;84.69;99257.81;5112851;28;20202;-68
2023/07/14 03:47:49;;;;;;;0.80;0.80;;;;;;;26.55;85.23;99257.38;5112790;28;20267;-69
2023/07/14 03:50:16;;;;;;;0.87;0.87;;;;;;;26.57;85.13;99268.53;5111369;28;20256;-69
2023/07/14 03:52:43;;;;;;;1.83;1.73;;;;;;;26.51;85.18;99264.72;5112415;28;20226;-69
2023/07/14 03:55:10;;;;;;;1.43;1.30;;;;;;;26.53;84.48;99256.66;5112788;28;20231;-69
2023/07/14 03:57:38;;;;;;;1.27;1.17;;;;;;;26.62;84.23;99272.38;5112946;28;20684;-68
2023/07/14 04:00:12;;;;;;;1.27;1.17;;;;;;;26.63;83.60;99268.75;5112193;28;20697;-68
2023/07/14 04:02:39;;;;;;;0.73;0.73;;;;;;;26.68;83.43;99268.31;5111415;28;20286;-69
2023/07/14 04:05:07;;;;;;;1.00;1.00;;;;;;;26.73;83.64;99271.31;5110341;28;20203;-68
2023/07/14 04:07:34;;;;;;;0.90;0.90;;;;;;;26.73;83.07;99263.44;5112689;28;20198;-69
2023/07/14 04:10:02;;;;;;;2.87;0.90;;;;;;;26.86;82.46;99274.41;5108205;28;20194;-69
2023/07/14 04:12:29;;;;;;;1.97;1.60;;;;;;;26.95;82.74;99275.28;5112470;28;20199;-69
2023/07/14 04:14:57;;;;;;;0.90;0.90;;;;;;;26.81;81.95;99274.06;5111762;28;20206;-69
2023/07/14 04:17:24;;;;;;;1.53;1.43;;;;;;;26.77;83.10;99291.09;5113387;28;20253;-69
2023/07/14 04:19:51;;;;;;;1.20;1.10;;;;;;;26.71;82.80;99291.69;5111123;28;20704;-68
2023/07/14 04:22:19;;;;;;;0.80;0.80;;;;;;;26.80;81.28;99289.94;5113258;28;20298;-69
2023/07/14 04:24:46;;;;;;;1.30;1.30;;;;;;;26.87;80.37;99280.50;5112214;28;20207;-69
2023/07/14 04:27:13;;;;;;;0.80;0.80;;;;;;;26.95;78.48;99289.28;5110041;28;20199;-69
2023/07/14 04:29:40;;;;;;;0.80;0.80;;;;;;;26.99;76.05;99292.44;5111641;28;20194;-69
2023/07/14 04:32:09;;;;;;;0.90;0.90;;;;;;;27.05;74.00;99284.75;5110857;28;20219;-69
2023/07/14 04:34:37;;;;;;;1.70;1.03;;;;;;;27.00;72.75;99287.03;5111517;28;20215;-69
2023/07/14 04:37:04;;;;;;;3.03;1.33;;;;;;;27.01;72.16;99278.13;5111673;28;20202;-69
2023/07/14 04:39:31;;;;;;;0.70;0.70;;;;;;;27.19;71.27;99287.81;5110545;28;20709;-69
2023/07/14 04:41:59;;;;;;;0.73;0.73;;;;;;;27.29;71.07;99283.28;5111404;28;20249;-68
2023/07/14 04:44:25;;;;;;;0.60;0.60;;;;;;;27.41;69.42;99284.66;5108674;28;20613;-68
2023/07/14 04:46:52;;;;;;;0.60;0.60;;;;;;;27.51;68.92;99280.16;5110291;28;20271;-68
2023/07/14 04:49:21;;;;;;;1.60;1.07;;;;;;;27.55;68.06;99271.78;5104926;28;20264;-68
2023/07/14 04:51:47;;;;;;;0.83;0.83;;;;;;;27.77;68.33;99275.66;5110531;28;20616;-68
2023/07/14 04:54:14;;;;;;;9.03;1.30;;;;;;;27.94;67.86;99274.75;5110324;28;20218;-68
2023/07/14 04:56:43;;;;;;;2.07;0.80;;;;;;;28.09;69.79;99289.00;5109663;28;20234;-72
2023/07/14 04:59:10;;;;;;;1.40;1.07;;;;;;;28.34;67.19;99286.41;5109802;28;20210;-72
2023/07/14 05:01:38;;;;;;;1.17;1.17;;;;;;;28.48;66.33;99297.16;5108263;28;20199;-68
2023/07/14 05:04:05;;;;;;;1.17;1.00;;;;;;;28.70;65.18;99293.09;5109581;28;20248;-68
2023/07/14 05:06:33;;;;;;;0.83;0.83;;;;;;;28.85;65.25;99291.47;5110669;28;20210;-68
2023/07/14 05:09:00;;;;;;;0.90;0.90;;;;;;;29.02;64.51;99287.81;5106974;28;22485;-68
2023/07/14 05:11:27;;;;;;;1.10;1.03;;;;;;;29.12;62.99;99290.28;5107698;28;20202;-69
2023/07/14 05:13:54;;;;;;;3.17;1.30;;;;;;;29.15;63.21;99274.94;5109530;28;20226;-69
2023/07/14 05:16:22;;;;;;;1.20;1.10;;;;;;;29.21;62.28;99268.13;5108619;28;20301;-68
2023/07/14 05:18:49;;;;;;;3.60;1.07;;;;;;;29.27;61.77;99264.06;5108888;28;20202;-68
2023/07/14 05:21:16;;;;;;;0.85;0.85;;;;;;;29.30;61.95;99255.78;5109229;28;20298;-68
2023/07/14 05:23:44;;;;;;;1.37;0.90;;;;;;;29.55;60.46;99266.13;5108148;28;20203;-68
2023/07/14 05:26:10;;;;;;;1.70;1.48;;;;;;;29.69;58.81;99272.53;5110279;28;20199;-69
2023/07/14 05:28:37;;;;;;;8.60;0.90;;;;;;;29.82;59.07;99270.16;5109012;28;20202;-69
2023/07/14 05:31:08;;;;;;;0.82;0.80;;;;;;;30.06;58.23;99272.69;5110443;28;20194;-68
2023/07/14 05:33:35;;;;;;;4.05;0.90;;;;;;;30.28;56.84;99272.91;5107304;28;21989;-68
2023/07/14 05:36:02;;;;;;;0.90;0.90;;;;;;;30.46;56.19;99271.66;5107474;28;20627;-68
2023/07/14 05:38:30;;;;;;;1.10;1.00;;;;;;;30.72;53.87;99276.59;5106943;28;20199;-68
2023/07/14 05:40:58;;;;;;;1.35;1.23;;;;;;;30.87;53.88;99281.94;5107837;28;20233;-69
2023/07/14 05:43:28;;;;;;;1.33;1.23;;;;;;;31.09;54.29;99289.88;5108785;28;20209;-68
2023/07/14 05:45:55;;;;;;;1.60;0.93;;;;;;;31.43;52.14;99289.38;5108291;28;20233;-68
2023/07/14 05:48:22;;;;;;;0.88;0.88;;;;;;;31.69;49.82;99292.44;5109532;28;20697;-68
2023/07/14 05:50:49;;;;;;;6.13;1.40;;;;;;;31.84;49.91;99295.06;5108739;28;20198;-68
2023/07/14 05:53:17;;;;;;;0.90;0.90;;;;;;;32.00;51.00;99305.47;5110137;28;20225;-68
2023/07/14 05:55:44;;;;;;;4.13;2.25;;;;;;;32.32;50.98;99308.72;5107822;28;20226;-69
2023/07/14 05:58:12;;;;;;;2.35;1.30;;;;;;;32.62;46.65;99310.28;5108309;28;20455;-65
2023/07/14 06:00:39;;;;;;;1.15;1.15;;;;;;;32.79;47.29;99306.38;5110981;28;20190;-65
2023/07/14 06:03:07;;;;;;;2.45;0.90;;;;;;;32.87;47.29;99287.66;5110890;28;20264;-66
2023/07/14 06:05:34;;;;;;;2.45;1.00;;;;;;;33.12;49.13;99309.34;5110751;28;20195;-65
2023/07/14 06:08:01;;;;;;;3.15;1.73;;;;;;;33.35;47.43;99317.06;5110508;28;20575;-66
2023/07/14 06:24:46;;;;;;;1.70;1.30;;;;;;;35.32;42.10;99333.78;5105892;27;20571;-75
2023/07/14 06:27:13;;;;;;;1.20;1.10;;;;;;;35.36;41.56;99330.47;5106431;28;20272;-75
2023/07/14 06:29:40;;;;;;;1.88;1.17;;;;;;;35.51;41.80;99338.25;5105749;28;20565;-75
2023/07/14 06:32:08;;;;;;;0.70;0.70;;;;;;;35.61;41.28;99344.81;5107542;28;20190;-75
2023/07/14 06:34:35;;;;;;;1.05;0.90;;;;;;;35.74;40.74;99347.47;5103157;28;20568;-75
2023/07/14 06:37:02;;;;;;;1.75;1.10;;;;;;;35.79;40.27;99342.31;5107277;28;20684;-75
2023/07/14 06:39:30;;;;;;;4.03;1.10;;;;;;;35.97;40.49;99344.31;5103492;28;20218;-74
2023/07/14 06:41:59;;;;;;;1.63;0.90;;;;;;;36.03;40.45;99343.47;5104329;28;20637;-76
2023/07/14 06:44:26;;;;;;;2.35;1.02;;;;;;;36.09;41.64;99347.97;5104940;28;20277;-75
2023/07/14 06:46:53;;;;;;;1.08;1.08;;;;;;;36.05;41.86;99345.94;5104977;28;20684;-77
2023/07/14 06:49:20;;;;;;;1.17;0.82;;;;;;;36.03;41.50;99343.47;5106623;28;20207;-77
2023/07/14 06:51:48;;;;;;;1.30;1.30;;;;;;;36.17;42.01;99342.41;5101803;28;20253;-78
2023/07/14 06:54:15;;;;;;;1.08;1.08;;;;;;;36.21;41.88;99342.81;5104047;28;20306;-78
2023/07/14 06:56:43;;;;;;;1.20;1.05;;;;;;;36.41;42.24;99350.72;5105688;28;20203;-78
2023/07/14 06:59:12;;;;;;;2.55;1.45;;;;;;;36.53;42.51;99333.00;5105458;28;20190;-78
2023/07/14 07:01:39;;;;;;;1.50;1.17;;;;;;;36.52;40.00;99342.03;5102454;28;20191;-74
2023/07/14 07:04:06;;;;;;;1.15;1.15;;;;;;;36.56;41.75;99337.94;5101899;28;20199;-75
2023/07/14 07:06:33;;;;;;;1.52;1.33;;;;;;;36.65;41.59;99337.47;5104008;28;20195;-75
2023/07/14 07:09:00;;;;;;;0.90;0.90;;;;;;;36.90;40.60;99344.69;5102734;28;20211;-75
2023/07/14 07:11:27;;;;;;;1.95;1.10;;;;;;;37.06;39.90;99345.00;5103095;28;20200;-76
2023/07/14 07:13:54;;;;;;;0.90;0.90;;;;;;;37.11;41.76;99342.50;5104122;28;20626;-78
2023/07/14 07:16:24;;;;;;;1.30;1.20;;;;;;;37.27;41.45;99349.97;5103407;28;20701;-78
2023/07/14 07:18:51;;;;;;;1.30;1.23;;;;;;;37.46;40.81;99344.69;5102287;28;20228;-78
2023/07/14 07:21:18;;;;;;;1.05;1.05;;;;;;;37.50;40.13;99341.34;5100959;28;20198;-77
2023/07/14 07:23:45;;;;;;;1.35;1.35;;;;;;;37.48;40.31;99345.28;5101354;28;20310;-76
2023/07/14 07:26:12;;;;;;;0.90;0.90;;;;;;;37.32;40.15;99344.75;5091218;28;20199;-77
2023/07/14 07:28:39;;;;;;;1.05;1.00;;;;;;;37.10;39.59;99340.84;5088231;28;20758;-76
2023/07/14 07:31:09;;;;;;;1.00;1.00;;;;;;;37.17;40.15;99341.63;5091360;28;20203;-77
2023/07/14 07:33:38;;;;;;;1.65;1.38;;;;;;;37.06;40.23;99345.00;5091527;28;20214;-76
2023/07/14 07:36:14;;;;;;;1.00;1.00;;;;;;;36.82;39.56;99343.09;5090215;28;20572;-76
2023/07/14 07:38:45;;;;;;;0.88;0.88;;;;;;;36.68;40.84;99320.16;5086913;28;20443;-78
2023/07/14 07:41:13;;;;;;;1.20;1.10;;;;;;;37.01;40.73;99326.13;5089525;28;20689;-78
2023/07/14 07:43:40;;;;;;;1.30;1.30;;;;;;;37.26;39.45;99323.44;5086859;28;20200;-78
2023/07/14 07:46:10;;;;;;;1.10;1.10;;;;;;;37.51;38.57;99326.13;5090142;28;20207;-79
2023/07/14 07:48:39;;;;;;;1.25;1.15;;;;;;;37.55;39.52;99321.94;5090370;28;20195;-77
2023/07/14 07:51:07;;;;;;;1.20;1.10;;;;;;;37.49;38.47;99323.66;5091429;28;20278;-79
2023/07/14 07:53:34;;;;;;;5.57;1.43;;;;;;;37.51;38.41;99305.53;5089881;28;20976;-76
2023/07/14 07:56:02;;;;;;;1.17;1.08;;;;;;;37.86;37.90;99321.81;5090234;28;20560;-76
2023/07/14 07:58:30;;;;;;;2.00;1.00;;;;;;;38.03;38.16;99309.47;5089249;28;20188;-77
2023/07/14 08:01:01;;;;;;;1.00;1.00;;;;;;;38.03;37.40;99320.19;5090069;28;20206;-77
2023/07/14 08:18:25;;;;;;;1.13;1.10;;;;;;;39.30;33.86;99325.16;5082233;27;20547;-69
2023/07/14 08:20:51;;;;;;;2.17;1.23;;;;;;;39.30;34.01;99330.50;5109682;27;20196;-69
2023/07/14 08:23:20;;;;;;;1.40;1.30;;;;;;;39.32;35.89;99333.75;5064206;27;20287;-69
2023/07/14 08:25:54;;;;;;;1.58;1.30;;;;;;;39.24;34.60;99323.41;5074450;27;20212;-68
2023/07/14 08:28:21;;;;;;;1.33;1.23;;;;;;;39.09;35.29;99328.38;5080277;27;20264;-65
2023/07/14 08:30:49;;;;;;;1.52;1.42;;;;;;;39.13;35.54;99326.84;5064036;27;20200;-65
2023/07/14 08:33:17;;;;;;;4.18;1.33;;;;;;;39.30;34.40;99332.38;5063877;27;20200;-66
2023/07/14 08:35:45;;;;;;;1.30;1.15;;;;;;;39.19;33.33;99331.31;5063916;27;20243;-66
2023/07/14 08:38:11;;;;;;;1.40;1.40;;;;;;;39.08;33.28;99326.75;5063905;27;20694;-65
2023/07/14 08:40:45;;;;;;;3.05;1.77;;;;;;;38.94;33.04;99319.16;5061166;27;20201;-67
2023/07/14 08:43:22;;;;;;;1.02;1.00;;;;;;;38.96;33.15;99325.09;5063552;27;20211;-66
2023/07/14 08:45:55;;;;;;;0.80;0.80;;;;;;;38.94;33.70;99333.34;5061970;27;20200;-66
2023/07/14 08:48:30;;;;;;;1.10;1.08;;;;;;;38.58;34.58;99323.56;5063922;27;20211;-66
2023/07/14 08:51:04;;;;;;;2.35;1.20;;;;;;;38.68;36.22;99320.34;5062849;27;20200;-66
2023/07/14 08:53:33;;;;;;;1.30;1.30;;;;;;;38.66;34.77;99320.59;5063834;27;20203;-66
2023/07/14 08:56:03;;;;;;;1.65;1.40;;;;;;;38.57;34.91;99318.47;5064255;27;20310;-66
2023/07/14 08:58:33;;;;;;;1.63;1.08;;;;;;;38.63;34.51;99325.56;5063961;27;20207;-66
2023/07/14 09:01:08;;;;;;;4.50;1.25;;;;;;;38.67;33.88;99326.75;5064000;27;20200;-66
2023/07/14 09:03:42;;;;;;;4.55;1.10;;;;;;;38.59;34.32;99319.03;5137823;27;20197;-66
2023/07/14 09:06:29;;;;;;;2.30;1.17;;;;;;;38.73;33.05;99325.84;5169245;27;20205;-66
2023/07/14 09:08:56;;;;;;;1.77;1.08;;;;;;;38.76;33.60;99320.84;5169720;27;20644;-66
2023/07/14 09:11:35;;;;;;;0.80;0.80;;;;;;;38.79;32.64;99319.56;5169642;27;20196;-65
2023/07/14 09:14:15;;;;;;;1.20;1.20;;;;;;;38.94;33.69;99319.16;5169385;27;20200;-66
2023/07/14 09:16:56;;;;;;;1.27;1.20;;;;;;;39.08;32.57;99318.69;5169455;27;20272;-66
2023/07/14 09:19:37;;;;;;;5.45;1.13;;;;;;;39.10;32.34;99319.28;5154977;27;20291;-65
2023/07/14 09:22:11;;;;;;;2.72;1.17;;;;;;;39.39;32.07;99316.75;5155432;27;20201;-66
2023/07/14 09:24:46;;;;;;;1.23;0.93;;;;;;;39.25;32.94;99305.44;5153782;27;20189;-65
2023/07/14 09:27:19;;;;;;;1.23;1.20;;;;;;;39.29;32.44;99303.94;5050352;27;20249;-65
2023/07/14 09:29:47;;;;;;;1.77;1.30;;;;;;;39.41;32.45;99311.97;5050367;27;20204;-66
2023/07/14 09:32:26;;;;;;;1.52;1.42;;;;;;;39.25;32.55;99306.25;5049797;27;20209;-66
2023/07/14 09:34:57;;;;;;;1.58;1.48;;;;;;;39.43;31.06;99304.47;5050162;27;20326;-66
2023/07/14 09:37:33;;;;;;;1.90;1.30;;;;;;;39.52;31.61;99303.09;5050019;27;20197;-66
2023/07/14 09:40:09;;;;;;;1.25;1.15;;;;;;;39.52;35.52;99305.78;5050240;27;20252;-66
2023/07/14 09:42:40;;;;;;;1.30;1.30;;;;;;;39.44;31.51;99295.41;5050260;27;20287;-66
2023/07/14 09:45:17;;;;;;;1.00;1.00;;;;;;;39.45;30.80;99288.97;5050009;27;20201;-66
2023/07/14 09:47:46;;;;;;;1.00;1.00;;;;;;;39.38;30.77;99290.97;5049783;27;20243;-66
2023/07/14 09:50:16;;;;;;;3.10;0.90;;;;;;;39.42;33.29;99292.13;5050048;27;20671;-66
2023/07/14 09:52:56;;;;;;;0.95;0.95;;;;;;;39.30;31.67;99292.97;5049821;27;20252;-66
2023/07/14 09:55:24;;;;;;;5.47;1.20;;;;;;;39.51;31.94;99290.72;5049892;27;20219;-66
2023/07/14 09:57:55;;;;;;;0.90;0.90;;;;;;;39.58;34.90;99288.72;5049713;27;20201;-66
2023/07/14 10:00:25;;;;;;;1.58;1.20;;;;;;;39.72;32.57;99276.69;5049818;27;20646;-67
2023/07/14 10:03:04;;;;;;;1.38;1.27;;;;;;;39.70;35.19;99284.19;5082672;27;20193;-65
2023/07/14 10:05:37;;;;;;;4.68;1.00;;;;;;;39.62;33.81;99260.34;5154877;27;20683;-66
2023/07/14 10:08:22;;;;;;;0.85;0.85;;;;;;;39.88;32.97;99270.56;5154652;27;20675;-65
2023/07/14 10:10:49;;;;;;;0.98;0.98;;;;;;;40.07;31.53;99268.53;5155026;27;20288;-65
2023/07/14 10:13:21;;;;;;;1.30;1.20;;;;;;;40.07;33.29;99274.69;5154604;27;20675;-66
2023/07/14 10:15:54;;;;;;;1.10;1.10;;;;;;;40.20;32.42;99273.63;5154350;27;20687;-66
2023/07/14 10:18:22;;;;;;;1.65;1.08;;;;;;;40.17;32.40;99266.06;5154081;27;20225;-66
2023/07/14 10:21:00;;;;;;;1.40;1.27;;;;;;;40.15;30.38;99266.31;5154509;27;20572;-65
2023/07/14 10:23:29;;;;;;;2.25;2.05;;;;;;;40.11;30.09;99261.66;5154166;27;20236;-66
2023/07/14 10:25:56;;;;;;;3.45;1.45;;;;;;;40.16;31.45;99261.75;5154137;27;20557;-66
2023/07/14 10:28:27;;;;;;;1.80;1.58;;;;;;;40.26;31.35;99254.66;5154346;27;20672;-66
2023/07/14 10:31:25;;;;;;;1.38;1.27;;;;;;;40.37;31.57;99247.63;5145738;27;20284;-61
2023/07/14 10:34:08;;;;;;;1.98;1.48;;;;;;;40.56;30.99;99259.78;5134250;27;20687;-62
2023/07/14 10:36:39;;;;;;;1.10;1.10;;;;;;;40.29;30.23;99221.94;5070092;27;20196;-61
2023/07/14 10:39:13;;;;;;;4.10;1.50;;;;;;;40.41;30.32;99250.63;5053171;27;20714;-61
2023/07/14 10:41:45;;;;;;;1.27;1.17;;;;;;;40.44;31.40;99242.09;5152067;27;20204;-62
2023/07/14 10:44:17;;;;;;;1.15;1.15;;;;;;;40.24;30.40;99232.63;5122392;27;20253;-61
2023/07/14 10:46:48;;;;;;;1.27;1.27;;;;;;;40.34;32.34;99243.53;5127427;27;20246;-61
2023/07/14 10:49:27;;;;;;;0.85;0.85;;;;;;;40.36;31.41;99230.66;5048797;27;20204;-61
2023/07/14 10:52:00;;;;;;;1.55;1.15;;;;;;;40.45;33.04;99233.78;5092540;27;20210;-61
2023/07/14 10:54:42;;;;;;;1.05;1.00;;;;;;;40.47;30.33;99228.97;5048798;27;20201;-61
2023/07/14 10:57:15;;;;;;;4.97;1.08;;;;;;;40.49;30.94;99234.13;5073983;27;20257;-61
2023/07/14 10:59:48;;;;;;;1.15;1.10;;;;;;;40.54;31.18;99224.28;5153469;27;20189;-61
2023/07/14 11:02:21;;;;;;;1.23;1.13;;;;;;;40.56;32.91;99224.03;5137925;27;20205;-61
2023/07/14 11:04:53;;;;;;;2.53;1.17;;;;;;;40.69;31.53;99218.31;5070371;27;20227;-61
2023/07/14 11:07:27;;;;;;;1.73;1.63;;;;;;;40.74;30.79;99208.50;5048517;27;20220;-61
2023/07/14 11:09:56;;;;;;;1.25;1.15;;;;;;;40.58;29.92;99222.75;5047999;27;20205;-61
2023/07/14 11:12:33;;;;;;;1.30;1.20;;;;;;;40.54;30.29;99215.41;5048672;27;20633;-61
2023/07/14 11:15:16;;;;;;;1.65;1.55;;;;;;;40.68;30.29;99211.34;5048451;27;20255;-61
2023/07/14 11:17:51;;;;;;;0.70;0.70;;;;;;;40.69;30.71;99202.19;5122619;27;20217;-61
2023/07/14 11:20:26;;;;;;;1.67;1.30;;;;;;;40.77;31.39;99212.56;5153023;27;20228;-61
2023/07/14 11:23:06;;;;;;;1.23;1.17;;;;;;;40.45;30.47;99160.41;5124857;27;20216;-61
2023/07/14 11:25:44;;;;;;;4.03;1.30;;;;;;;40.84;30.40;99194.38;5048704;27;20201;-61
2023/07/14 11:28:25;;;;;;;1.30;1.30;;;;;;;40.99;31.40;99197.31;5048374;27;20629;-61
2023/07/14 11:30:56;;;;;;;1.30;1.02;;;;;;;40.99;30.08;99191.94;5048239;27;20208;-61
2023/07/14 11:33:34;;;;;;;2.00;1.10;;;;;;;40.98;29.98;99195.66;5081978;27;20272;-61
2023/07/14 11:36:06;;;;;;;1.30;0.88;;;;;;;40.92;30.85;99195.81;5152616;27;20249;-61
2023/07/14 11:38:45;;;;;;;2.08;1.30;;;;;;;40.88;32.21;99195.50;5152908;27;20193;-61
2023/07/14 11:41:14;;;;;;;1.60;1.50;;;;;;;40.95;29.71;99196.16;5108804;27;20192;-61
2023/07/14 11:43:42;;;;;;;0.90;0.90;;;;;;;40.87;29.04;99177.75;5108028;27;20225;-62
2023/07/14 11:46:13;;;;;;;1.83;1.58;;;;;;;40.89;31.62;99186.38;5069150;27;20549;-61
2023/07/14 11:48:43;;;;;;;1.63;1.52;;;;;;;40.96;31.13;99192.44;5052109;27;20278;-61
2023/07/14 11:51:13;;;;;;;1.77;1.23;;;;;;;40.70;29.11;99188.53;5105310;27;20205;-61
2023/07/14 11:53:42;;;;;;;1.00;1.00;;;;;;;40.78;29.12;99184.59;5048304;27;20204;-61
2023/07/14 11:56:22;;;;;;;1.60;1.50;;;;;;;40.79;29.47;99187.03;5066222;27;20193;-61
2023/07/14 11:58:52;;;;;;;0.93;0.93;;;;;;;40.86;28.93;99178.81;5120994;27;20280;-61
2023/07/14 12:01:28;;;;;;;0.88;0.88;;;;;;;40.93;28.97;99176.75;5047859;27;20244;-62
2023/07/14 12:04:20;;;;;;;1.52;1.33;;;;;;;40.98;29.74;99168.78;5127209;27;20201;-62
2023/07/14 12:06:49;;;;;;;1.05;1.05;;;;;;;41.01;27.79;99173.66;5069675;27;20208;-62
2023/07/14 12:09:18;;;;;;;1.35;1.15;;;;;;;41.01;29.91;99162.91;5110074;27;20224;-62
2023/07/14 12:11:53;;;;;;;1.23;1.00;;;;;;;41.06;28.51;99162.97;5094447;27;20193;-61
2023/07/14 12:14:48;;;;;;;3.53;1.10;;;;;;;41.05;30.06;99153.28;5130867;27;20648;-61
2023/07/14 12:17:42;;;;;;;0.77;0.77;;;;;;;40.99;27.74;99162.34;5115693;27;20304;-61